createdAt,value
2022-11-04T15:13:59.912Z,12.50
2022-11-04T15:16:30.118Z,9.32
2022-11-04T15:18:59.363Z,9.57
2022-11-04T15:21:27.215Z,10.85
2022-11-04T15:23:55.592Z,10.70
2022-11-04T15:26:29.407Z,10.70
2022-11-04T15:28:59.309Z,10.20
2022-11-04T15:31:29.371Z,9.30
2022-11-04T15:34:13.210Z,8.65
2022-11-04T15:36:44.042Z,7.47
2022-11-04T15:39:21.728Z,7.07
2022-11-04T15:42:10.610Z,6.75
2022-11-04T15:44:38.789Z,7.30
2022-11-04T15:47:17.726Z,7.57
2022-11-04T15:49:45.932Z,7.47
2022-11-04T15:52:17.276Z,7.75
2022-11-04T15:54:50.671Z,7.35
2022-11-04T15:57:21.380Z,8.10
2022-11-04T16:02:45.689Z,29.55
2022-11-04T16:05:12.749Z,44.75
2022-11-04T16:07:41.564Z,36.10
2022-11-04T16:10:44.388Z,28.77
2022-11-04T16:13:17.205Z,32.75
2022-11-04T16:15:50.046Z,29.38
2022-11-04T16:18:37.031Z,29.20
2022-11-04T16:21:10.834Z,27.70
2022-11-04T16:23:49.961Z,17.80
2022-11-04T16:26:17.109Z,16.20
2022-11-04T16:28:44.062Z,14.75
2022-11-04T16:31:28.343Z,19.20
2022-11-04T16:33:55.639Z,12.70
2022-11-04T16:36:28.545Z,16.67
2022-11-04T16:39:02.890Z,10.43
2022-11-04T16:41:34.330Z,11.93
2022-11-04T16:44:01.152Z,10.00
2022-11-04T16:46:27.965Z,10.52
2022-11-04T16:48:54.781Z,12.48
2022-11-04T16:51:23.638Z,11.02
2022-11-04T16:53:52.530Z,8.85
2022-11-04T16:56:22.475Z,8.02
2022-11-04T16:58:49.501Z,10.18
2022-11-04T17:01:18.436Z,7.95
2022-11-04T17:03:45.723Z,8.27
2022-11-04T17:06:14.476Z,8.30
2022-11-04T17:08:42.211Z,10.10
2022-11-04T17:11:10.145Z,8.85
2022-11-04T17:13:37.674Z,9.23
2022-11-04T17:16:06.654Z,8.73
2022-11-04T17:18:34.713Z,8.38
2022-11-04T17:21:06.310Z,8.57
2022-11-04T17:23:33.801Z,8.57
2022-11-04T17:26:01.216Z,9.55
2022-11-04T17:28:28.122Z,8.68
2022-11-04T17:30:55.170Z,10.00
2022-11-04T17:33:22.386Z,9.23
2022-11-04T17:35:50.727Z,9.30
2022-11-04T17:38:18.687Z,9.57
2022-11-04T17:41:04.307Z,9.50
2022-11-04T17:43:49.920Z,8.95
2022-11-04T17:46:36.726Z,7.35
2022-11-04T17:49:24.319Z,9.93
2022-11-04T17:52:00.590Z,10.20
2022-11-04T17:54:32.583Z,10.27
2022-11-04T17:56:59.382Z,10.63
2022-11-04T17:59:28.397Z,11.23
2022-11-04T18:04:28.439Z,8.40
2022-11-04T18:07:01.379Z,11.38
2022-11-04T18:09:30.386Z,12.60
2022-11-04T18:12:15.913Z,12.95
2022-11-04T18:14:42.811Z,12.30
2022-11-04T18:17:10.747Z,13.50
2022-11-04T18:19:37.614Z,12.13
2022-11-04T18:22:04.543Z,8.23
2022-11-04T18:24:31.511Z,8.55
2022-11-04T18:27:01.565Z,9.32
2022-11-04T18:29:28.409Z,9.25
2022-11-04T18:31:55.265Z,10.68
2022-11-04T18:34:22.219Z,10.70
2022-11-04T18:36:49.373Z,11.30
2022-11-04T18:39:18.121Z,11.32
2022-11-04T18:41:46.119Z,11.90
2022-11-04T18:44:19.214Z,11.52
2022-11-04T18:46:47.613Z,10.80
2022-11-04T18:49:15.611Z,11.38
2022-11-04T18:51:42.999Z,11.48
2022-11-04T18:54:11.869Z,11.18
2022-11-04T18:56:39.214Z,11.15
2022-11-04T18:59:09.586Z,11.02
2022-11-04T19:01:36.720Z,11.38
2022-11-04T19:04:04.052Z,11.98
2022-11-04T19:06:33.735Z,11.27
2022-11-04T19:09:25.276Z,11.60
2022-11-04T19:12:14.155Z,10.75
2022-11-04T19:14:44.719Z,10.82
2022-11-04T19:17:11.762Z,11.85
2022-11-04T19:19:41.872Z,11.48
2022-11-04T19:22:09.480Z,11.82
2022-11-04T19:24:36.431Z,11.80
2022-11-04T19:27:04.394Z,11.93
2022-11-04T19:29:32.891Z,11.68
2022-11-04T19:32:00.484Z,11.80
2022-11-04T19:34:27.765Z,10.85
2022-11-04T19:36:54.666Z,11.52
2022-11-04T19:39:21.528Z,12.75
2022-11-04T19:42:06.729Z,12.23
2022-11-04T19:44:33.646Z,12.85
2022-11-04T19:47:00.431Z,12.52
2022-11-04T19:49:31.388Z,13.25
2022-11-04T19:51:59.101Z,12.93
2022-11-04T19:54:26.624Z,13.25
2022-11-04T19:56:53.412Z,13.82
2022-11-04T19:59:20.197Z,14.95
2022-11-04T20:01:47.409Z,14.82
2022-11-04T20:04:14.393Z,14.90
2022-11-04T20:06:41.369Z,16.98
2022-11-04T20:09:12.783Z,20.45
2022-11-04T20:11:59.162Z,20.88
2022-11-04T20:14:27.707Z,21.65
2022-11-04T20:16:54.886Z,23.70
2022-11-04T20:19:23.020Z,24.30
2022-11-04T20:21:50.720Z,25.52
2022-11-04T20:24:17.978Z,27.50
2022-11-04T20:26:46.663Z,26.88
2022-11-04T20:29:16.014Z,25.95
2022-11-04T20:31:44.024Z,26.50
2022-11-04T20:34:12.286Z,27.20
2022-11-04T20:36:39.975Z,27.90
2022-11-04T20:39:18.737Z,26.73
2022-11-04T20:41:47.171Z,23.60
2022-11-04T20:44:15.430Z,23.90
2022-11-04T20:46:42.953Z,22.15
2022-11-04T20:49:10.451Z,23.10
2022-11-04T20:51:48.680Z,21.88
2022-11-04T20:54:19.176Z,21.17
2022-11-04T20:56:46.031Z,21.63
2022-11-04T20:59:14.021Z,23.67
2022-11-04T21:01:43.623Z,21.98
2022-11-04T21:04:19.985Z,20.23
2022-11-04T21:06:48.918Z,21.27
2022-11-04T21:09:17.252Z,22.73
2022-11-04T21:11:44.069Z,23.13
2022-11-04T21:14:16.621Z,24.67
2022-11-04T21:16:43.984Z,23.35
2022-11-04T21:19:12.068Z,24.00
2022-11-04T21:21:42.311Z,24.88
2022-11-04T21:24:12.457Z,23.95
2022-11-04T21:26:40.329Z,25.35
2022-11-04T21:29:09.081Z,23.95
2022-11-04T21:31:37.119Z,28.42
2022-11-04T21:34:04.727Z,26.10
2022-11-04T21:36:32.495Z,27.00
2022-11-04T21:39:00.035Z,27.38
2022-11-04T21:41:33.221Z,27.95
2022-11-04T21:44:02.143Z,29.52
2022-11-04T21:46:30.705Z,27.42
2022-11-04T21:48:58.589Z,27.02
2022-11-04T21:51:29.046Z,29.38
2022-11-04T21:53:57.044Z,27.08
2022-11-04T21:56:29.330Z,28.40
2022-11-04T21:58:56.494Z,28.88
2022-11-04T22:01:28.493Z,29.70
2022-11-04T22:04:00.840Z,29.40
2022-11-04T22:06:34.072Z,29.17
2022-11-04T22:09:02.173Z,30.20
2022-11-04T22:11:31.474Z,31.05
2022-11-04T22:14:00.844Z,32.50
2022-11-04T22:16:29.665Z,31.35
2022-11-04T22:19:01.502Z,30.70
2022-11-04T22:21:30.849Z,28.33
2022-11-04T22:23:58.462Z,30.25
2022-11-04T22:26:31.636Z,30.60
2022-11-04T22:28:59.601Z,31.20
2022-11-04T22:31:35.507Z,29.45
2022-11-04T22:34:03.457Z,27.60
2022-11-04T22:36:32.590Z,28.75
2022-11-04T22:39:00.137Z,28.48
2022-11-04T22:41:31.977Z,29.73
2022-11-04T22:43:59.428Z,30.65
2022-11-04T22:46:29.352Z,30.95
2022-11-04T22:48:56.589Z,27.37
2022-11-04T22:51:23.549Z,28.10
2022-11-04T22:53:57.750Z,27.67
2022-11-04T22:56:27.363Z,26.33
2022-11-04T22:58:54.535Z,29.23
2022-11-04T23:01:23.031Z,27.60
2022-11-04T23:03:51.787Z,28.30
2022-11-04T23:06:20.950Z,27.38
2022-11-04T23:10:17.987Z,18.88
2022-11-04T23:13:03.425Z,17.95
2022-11-04T23:15:50.568Z,17.83
2022-11-04T23:18:36.037Z,17.15
2022-11-04T23:21:21.389Z,17.23
2022-11-04T23:24:06.838Z,17.10
2022-11-04T23:26:33.641Z,15.95
2022-11-04T23:29:19.889Z,16.13
2022-11-04T23:32:27.277Z,16.88
2022-11-04T23:35:17.758Z,15.27
2022-11-04T23:37:44.984Z,15.65
2022-11-04T23:40:11.775Z,14.98
2022-11-04T23:42:38.607Z,15.50
2022-11-04T23:45:40.896Z,19.08
2022-11-04T23:48:28.863Z,18.60
2022-11-04T23:51:20.011Z,16.00
2022-11-04T23:54:05.823Z,16.33
